Time;durP1;ratioP1;P1;durP2;ratioP2;P2;SDS_P1;SDS_P2;PMS_P1;PMS_P2;Temp;Humidity;BMP_temperature;BMP_pressure;BME280_temperature;BME280_humidity;BME280_pressure;Samples;Min_cycle;Max_cycle;Signal;HPM_P1;HPM_P2
2021/12/05 00:20:39;;;;;;;59.87;39.53;;;;;;;-1.33;83.71;99908.77;1698343;83;21069;-70
2021/12/05 00:22:49;;;;;;;59.13;39.47;;;;;;;-1.35;83.61;99910.20;1691623;83;21399;-69
2021/12/05 00:25:27;;;;;;;70.90;41.90;;;;;;;-1.46;83.89;99909.73;1683317;84;21034;-72
2021/12/05 00:28:18;;;;;;;65.73;39.23;;;;;;;-1.52;84.01;99910.22;1678863;84;21062;-70
2021/12/05 00:49:37;;;;;;;52.97;34.23;;;;;;;-1.41;84.09;99908.90;1627926;86;21559;-70
2021/12/05 01:02:41;;;;;;;51.00;33.17;;;;;;;-1.18;83.12;99916.20;1692637;83;21403;-69
2021/12/05 01:05:25;;;;;;;48.83;31.50;;;;;;;-1.19;82.57;99915.02;1693210;83;21016;-68
2021/12/05 01:08:01;;;;;;;56.63;35.10;;;;;;;-1.27;82.46;99910.41;1699475;83;21000;-67
2021/12/05 01:15:21;;;;;;;60.80;38.33;;;;;;;-1.49;82.76;99911.75;1716901;82;22199;-71
2021/12/05 01:20:27;;;;;;;60.63;37.07;;;;;;;-1.48;82.63;99916.87;1706090;83;21064;-70
2021/12/05 01:23:05;;;;;;;46.37;30.17;;;;;;;-1.50;82.59;99916.16;1690625;83;21665;-69
2021/12/05 01:28:14;;;;;;;48.83;31.00;;;;;;;-1.51;83.46;99928.86;1665299;85;21071;-69
2021/12/05 01:33:15;;;;;;;66.70;39.43;;;;;;;-1.51;83.56;99931.95;1632422;87;21024;-68
2021/12/05 01:38:29;;;;;;;58.53;38.70;;;;;;;-1.49;82.82;99933.49;1694148;83;21054;-68
2021/12/05 01:41:04;;;;;;;46.60;31.70;;;;;;;-1.47;82.61;99934.23;1656076;84;21705;-69
2021/12/05 01:49:09;;;;;;;35.73;23.73;;;;;;;-1.49;83.25;99940.51;1676856;85;21155;-67
2021/12/05 02:32:13;;;;;;;35.93;24.10;;;;;;;-1.68;83.96;99928.88;1654607;85;21201;-68
2021/12/05 02:37:09;;;;;;;40.63;26.20;;;;;;;-1.66;83.81;99919.61;1665647;85;20990;-68
2021/12/05 02:39:36;;;;;;;36.30;22.60;;;;;;;-1.63;83.71;99923.31;1663877;85;21142;-68
2021/12/05 02:42:06;;;;;;;43.60;26.13;;;;;;;-1.63;83.59;99922.82;1632603;86;21644;-68
2021/12/05 02:44:25;;;;;;;33.73;23.40;;;;;;;-1.58;83.42;99915.46;1621362;85;21070;-68
2021/12/05 02:47:05;;;;;;;33.15;22.70;;;;;;;-1.56;83.38;99912.73;1676619;83;21524;-68
2021/12/05 02:49:36;;;;;;;29.43;21.27;;;;;;;-1.58;83.31;99910.72;1667075;83;21128;-67
2021/12/05 02:52:08;;;;;;;38.73;23.27;;;;;;;-1.53;83.09;99917.70;1675322;83;20934;-68
2021/12/05 02:54:41;;;;;;;31.10;21.90;;;;;;;-1.59;83.17;99916.87;1687775;83;21020;-67
2021/12/05 02:57:09;;;;;;;34.37;20.63;;;;;;;-1.62;83.25;99915.80;1684006;82;21016;-68
2021/12/05 02:59:45;;;;;;;28.40;20.27;;;;;;;-1.61;83.20;99912.25;1648292;85;21111;-68
2021/12/05 03:02:13;;;;;;;28.97;19.87;;;;;;;-1.62;83.17;99902.73;1689946;83;21006;-68
2021/12/05 03:04:46;;;;;;;35.93;21.80;;;;;;;-1.64;83.23;99898.11;1676841;83;21077;-69
2021/12/05 03:07:19;;;;;;;31.03;22.73;;;;;;;-1.65;83.17;99893.36;1684080;83;21131;-69
2021/12/05 03:09:46;;;;;;;31.33;22.57;;;;;;;-1.70;83.42;99885.05;1637344;85;21100;-69
2021/12/05 03:12:19;;;;;;;35.83;21.12;;;;;;;-1.73;83.53;99884.45;1660624;85;21016;-70
2021/12/05 03:14:49;;;;;;;31.63;23.20;;;;;;;-1.77;83.65;99885.20;1637786;86;21008;-68
2021/12/05 03:17:19;;;;;;;31.83;21.27;;;;;;;-1.76;83.54;99882.92;1638073;86;21020;-69
2021/12/05 03:19:45;;;;;;;29.03;19.47;;;;;;;-1.82;83.79;99870.34;1634026;86;21553;-67
2021/12/05 03:22:14;;;;;;;31.40;21.80;;;;;;;-1.81;83.74;99870.23;1648183;85;21026;-69
2021/12/05 03:24:40;;;;;;;32.63;22.15;;;;;;;-1.79;83.65;99874.86;1657671;84;21078;-68
2021/12/05 03:27:07;;;;;;;30.70;20.02;;;;;;;-1.80;83.64;99875.80;1668692;84;21014;-69
2021/12/05 03:29:35;;;;;;;33.63;21.60;;;;;;;-1.78;83.58;99877.81;1665292;84;21078;-68
2021/12/05 03:32:05;;;;;;;28.20;19.10;;;;;;;-1.81;83.84;99876.77;1668283;84;21062;-68
2021/12/05 03:34:33;;;;;;;26.87;19.17;;;;;;;-1.78;83.76;99875.20;1678536;83;21331;-69
2021/12/05 03:37:02;;;;;;;27.10;19.90;;;;;;;-1.78;83.59;99866.05;1659466;84;21519;-68
2021/12/05 03:39:30;;;;;;;29.80;20.80;;;;;;;-1.79;83.65;99864.41;1688839;83;21034;-68
2021/12/05 03:41:57;;;;;;;28.45;22.32;;;;;;;-1.81;83.59;99866.77;1663965;84;21028;-69
2021/12/05 03:44:29;;;;;;;27.50;20.47;;;;;;;-1.82;83.60;99865.95;1659633;82;21057;-68
2021/12/05 03:46:56;;;;;;;30.53;22.13;;;;;;;-1.83;83.61;99871.29;1684272;83;21499;-69
2021/12/05 03:49:24;;;;;;;30.37;21.20;;;;;;;-1.83;83.64;99865.61;1695809;83;21450;-68
2021/12/05 03:51:56;;;;;;;36.40;22.57;;;;;;;-1.86;83.62;99871.06;1686250;83;21010;-69
2021/12/05 03:54:23;;;;;;;32.80;22.57;;;;;;;-1.91;83.80;99866.66;1689859;83;21106;-68
2021/12/05 03:56:50;;;;;;;33.00;23.27;;;;;;;-1.97;83.88;99861.44;1664247;82;21055;-69
2021/12/05 03:59:18;;;;;;;30.70;22.13;;;;;;;-2.00;84.01;99869.98;1667122;84;21025;-68
2021/12/05 04:01:47;;;;;;;30.50;22.73;;;;;;;-2.07;84.43;99868.80;1705386;82;21452;-70
2021/12/05 04:04:17;;;;;;;41.57;23.93;;;;;;;-2.09;84.63;99866.78;1733060;81;20990;-69
2021/12/05 04:06:46;;;;;;;34.13;21.00;;;;;;;-2.07;84.36;99863.57;1724253;82;21017;-68
2021/12/05 04:09:14;;;;;;;32.93;23.27;;;;;;;-2.05;84.38;99867.75;1734116;82;21530;-69
2021/12/05 04:11:47;;;;;;;33.97;21.63;;;;;;;-2.03;84.33;99865.02;1725946;81;21007;-68
2021/12/05 04:14:15;;;;;;;29.03;20.07;;;;;;;-2.04;84.35;99864.66;1675811;83;21074;-67
2021/12/05 04:16:43;;;;;;;35.37;22.73;;;;;;;-2.04;84.39;99861.56;1683025;83;21000;-68
2021/12/05 04:19:11;;;;;;;29.00;19.60;;;;;;;-2.02;84.50;99862.75;1706172;83;21062;-67
2021/12/05 04:21:39;;;;;;;28.53;20.23;;;;;;;-1.99;84.43;99870.36;1720807;83;21110;-70
2021/12/05 04:24:10;;;;;;;32.20;21.77;;;;;;;-1.97;84.32;99872.37;1699046;83;20979;-68
2021/12/05 04:26:40;;;;;;;31.00;20.57;;;;;;;-1.97;84.30;99881.52;1686589;84;21040;-69
2021/12/05 04:29:09;;;;;;;30.83;19.83;;;;;;;-1.96;84.23;99884.02;1689284;83;21023;-70
2021/12/05 04:31:38;;;;;;;26.57;17.93;;;;;;;-1.94;84.19;99887.82;1703786;84;21522;-68
2021/12/05 04:34:05;;;;;;;28.80;17.63;;;;;;;-1.97;84.19;99886.74;1696298;83;21216;-70
2021/12/05 04:36:33;;;;;;;25.73;18.20;;;;;;;-1.99;84.20;99886.03;1708169;84;21504;-67
2021/12/05 04:39:01;;;;;;;26.37;18.37;;;;;;;-2.02;84.31;99890.17;1711380;83;21053;-67
2021/12/05 04:41:29;;;;;;;25.13;17.30;;;;;;;-1.99;84.07;99889.95;1700436;83;21077;-68
2021/12/05 04:44:00;;;;;;;23.30;16.37;;;;;;;-2.01;84.01;99895.28;1702825;84;21073;-69
2021/12/05 04:46:29;;;;;;;25.73;17.33;;;;;;;-1.98;83.80;99888.98;1695623;82;21491;-69
2021/12/05 04:48:56;;;;;;;24.93;18.23;;;;;;;-2.00;83.70;99887.82;1699467;82;21075;-69
2021/12/05 04:51:29;;;;;;;23.57;16.30;;;;;;;-1.96;83.57;99893.61;1707450;82;20996;-70
2021/12/05 04:53:57;;;;;;;26.37;18.40;;;;;;;-1.92;83.47;99888.53;1705030;82;21079;-68
2021/12/05 04:56:25;;;;;;;28.53;18.13;;;;;;;-2.00;83.46;99904.80;1707492;81;21092;-68
2021/12/05 04:58:53;;;;;;;34.77;17.30;;;;;;;-1.95;83.24;99896.59;1707015;84;21507;-68
2021/12/05 05:01:23;;;;;;;28.97;17.37;;;;;;;-1.94;83.02;99894.80;1679578;82;21013;-68
2021/12/05 05:03:50;;;;;;;25.17;17.53;;;;;;;-1.93;82.97;99901.70;1686102;83;21125;-69
2021/12/05 05:06:19;;;;;;;24.20;16.83;;;;;;;-1.90;82.84;99909.28;1687464;83;21005;-68
2021/12/05 05:08:50;;;;;;;27.10;17.73;;;;;;;-1.89;82.67;99915.70;1690847;83;21021;-70
2021/12/05 05:11:19;;;;;;;27.20;18.13;;;;;;;-2.28;82.59;99853.86;1688758;83;21089;-69
2021/12/05 05:13:47;;;;;;;29.30;18.80;;;;;;;-1.89;82.42;99918.31;1685746;85;20952;-68
2021/12/05 05:16:19;;;;;;;31.03;19.63;;;;;;;-1.88;82.31;99923.91;1690627;84;21043;-70
2021/12/05 05:18:51;;;;;;;24.30;17.50;;;;;;;-1.86;82.11;99915.47;1689729;85;21118;-70
2021/12/05 05:22:05;;;;;;;27.53;17.77;;;;;;;-1.86;81.97;99919.39;1692222;85;21011;-70
2021/12/05 05:24:17;;;;;;;26.70;17.47;;;;;;;-1.90;81.99;99915.36;1683471;83;21485;-69
2021/12/05 05:49:58;;;;;;;28.40;18.70;;;;;;;-2.00;81.54;99903.49;1708291;83;21482;-69
2021/12/05 05:52:21;;;;;;;28.53;20.63;;;;;;;-2.01;81.60;99913.56;1700266;84;20986;-70
2021/12/05 05:54:50;;;;;;;23.38;16.95;;;;;;;-1.99;81.61;99914.77;1697440;82;22131;-71
2021/12/05 05:57:27;;;;;;;28.20;19.93;;;;;;;-1.96;81.46;99904.91;1703266;83;21014;-69
2021/12/05 06:00:08;;;;;;;31.87;20.80;;;;;;;-1.98;81.13;99899.43;1708150;84;21132;-69
2021/12/05 06:05:16;;;;;;;33.80;22.00;;;;;;;-2.09;81.29;99905.95;1700643;82;21577;-72
2021/12/05 06:07:44;;;;;;;;;;;;;;;-2.18;81.59;99918.77;1705527;84;21016;-69
2021/12/05 06:10:19;;;;;;;;;;;;;;;-2.25;81.77;99918.88;1709051;84;20135;-69
2021/12/05 06:12:46;;;;;;;38.10;24.80;;;;;;;-2.30;82.05;99911.86;1689411;84;20413;-69
2021/12/05 06:15:17;;;;;;;37.77;22.43;;;;;;;-2.36;82.37;99910.55;1692351;84;21554;-69
2021/12/05 06:17:45;;;;;;;38.83;23.53;;;;;;;-2.38;82.77;99912.92;1702664;83;20971;-69
2021/12/05 06:20:16;;;;;;;36.68;22.50;;;;;;;-2.34;82.80;99920.88;1706495;83;21607;-69
2021/12/05 06:22:47;;;;;;;28.30;20.07;;;;;;;-2.28;82.62;99917.83;1702785;81;21027;-68
2021/12/05 06:25:21;;;;;;;31.93;20.60;;;;;;;-2.19;82.62;99921.50;1694602;84;21154;-65
2021/12/05 06:27:44;;;;;;;28.30;18.10;;;;;;;-2.10;82.46;99925.20;1696487;84;21065;-64
2021/12/05 06:30:16;;;;;;;30.40;20.37;;;;;;;-2.08;81.97;99925.91;1698547;84;21511;-61
2021/12/05 06:46:08;;;;;;;31.60;20.70;;;;;;;-1.80;79.60;99945.52;1694066;83;21046;-66
2021/12/05 06:48:32;;;;;;;26.53;17.73;;;;;;;-1.80;79.62;99954.19;1692643;84;21554;-68
2021/12/05 06:50:59;;;;;;;32.80;21.23;;;;;;;-1.77;79.61;99958.36;1696547;84;21039;-68
2021/12/05 06:53:25;;;;;;;26.77;19.98;;;;;;;-1.67;79.62;99961.09;1690880;84;21015;-67
2021/12/05 06:55:51;;;;;;;28.80;18.20;;;;;;;-1.60;79.52;99968.78;1691418;82;21035;-68
2021/12/05 06:58:17;;;;;;;25.95;17.82;;;;;;;-1.50;79.05;99972.84;1699977;84;21094;-67
2021/12/05 07:00:43;;;;;;;28.23;18.10;;;;;;;-1.41;78.71;99975.56;1698222;84;21578;-68
2021/12/05 07:03:10;;;;;;;30.43;20.35;;;;;;;-1.35;78.45;99969.51;1695068;84;20968;-68
2021/12/05 07:08:08;;;;;;;27.17;17.83;;;;;;;-1.27;77.77;99973.65;1690799;84;21071;-68
2021/12/05 07:10:44;;;;;;;30.77;21.27;;;;;;;-1.29;77.46;99979.48;1695048;84;21109;-69
2021/12/05 07:13:37;;;;;;;30.10;19.40;;;;;;;-1.28;77.33;99976.75;1687125;83;21007;-66
2021/12/05 07:15:57;;;;;;;28.40;20.07;;;;;;;-1.26;77.55;99980.52;1689887;84;21074;-66
2021/12/05 07:42:33;;;;;;;30.43;20.33;;;;;;;-0.96;76.04;99973.36;1713674;82;21408;-70
2021/12/05 07:45:01;;;;;;;28.30;20.00;;;;;;;-0.90;76.20;99969.42;1693535;82;21049;-70
2021/12/05 07:47:30;;;;;;;28.87;21.77;;;;;;;-0.83;76.13;99974.48;1707497;82;21753;-67
2021/12/05 07:49:57;;;;;;;33.83;24.37;;;;;;;-0.79;75.92;99974.62;1700133;82;21010;-68
2021/12/05 07:52:27;;;;;;;34.00;24.90;;;;;;;-0.76;75.67;99976.97;1698710;82;21077;-67
2021/12/05 07:55:13;;;;;;;50.57;33.40;;;;;;;-0.73;75.70;99981.97;1711500;82;21014;-70
2021/12/05 07:57:45;;;;;;;43.93;31.37;;;;;;;-0.69;75.68;99988.61;1710307;82;21010;-69
2021/12/05 08:16:25;;;;;;;54.03;34.83;;;;;;;-0.54;74.72;100018.44;1703373;82;21038;-69
2021/12/05 08:18:46;;;;;;;45.60;29.17;;;;;;;-0.61;74.25;100019.39;1710183;82;21042;-69
2021/12/05 08:21:14;;;;;;;51.83;33.77;;;;;;;-0.66;74.49;100022.40;1706087;82;21058;-72
2021/12/05 08:23:40;;;;;;;;;;;;;;;-0.67;74.25;100018.11;1710243;82;21639;-71
2021/12/05 08:26:10;;;;;;;43.83;28.93;;;;;;;-0.66;74.44;100016.31;1705557;84;20135;-68
2021/12/05 08:29:00;;;;;;;46.40;31.63;;;;;;;-0.68;74.48;100020.39;1701765;84;20982;-67
2021/12/05 08:31:32;;;;;;;46.60;31.23;;;;;;;-0.70;74.65;100007.87;1702113;84;20983;-83
2021/12/05 09:31:27;;;;;;;35.03;23.07;;;;;;;-0.23;71.35;99958.66;1703470;84;21341;-71
2021/12/05 10:03:09;;;;;;;37.67;26.60;;;;;;;0.54;69.83;99962.59;1754409;80;21089;-68
2021/12/05 10:13:37;;;;;;;34.67;22.30;;;;;;;0.77;68.19;99971.56;1747270;80;21433;-68
2021/12/05 10:16:13;;;;;;;30.43;21.00;;;;;;;0.80;67.05;99973.11;1740669;80;21055;-67
2021/12/05 10:19:06;;;;;;;37.27;25.43;;;;;;;0.83;67.16;99965.80;1745972;80;20988;-69
2021/12/05 10:35:40;;;;;;;33.73;22.73;;;;;;;1.03;67.50;99973.70;1748219;80;21021;-69
2021/12/05 10:38:02;;;;;;;35.30;23.87;;;;;;;1.03;67.45;99979.78;1764477;80;21017;-66
2021/12/05 10:40:35;;;;;;;34.50;24.67;;;;;;;0.99;67.89;99973.63;1764775;80;21073;-69
2021/12/05 10:42:57;;;;;;;38.70;24.57;;;;;;;1.02;68.18;99970.26;1764802;80;21120;-68
2021/12/05 10:45:37;;;;;;;33.00;23.38;;;;;;;1.06;67.61;99980.01;1763943;78;21613;-68
2021/12/05 10:48:15;;;;;;;35.70;22.47;;;;;;;1.10;67.59;99986.15;1760206;80;21117;-68
2021/12/05 10:50:55;;;;;;;35.30;22.67;;;;;;;1.09;67.05;99984.51;1758150;80;21005;-68
2021/12/05 10:53:49;;;;;;;32.93;22.13;;;;;;;1.00;67.36;99981.84;1756751;80;21031;-70
2021/12/05 10:56:49;;;;;;;35.40;26.30;;;;;;;0.98;67.96;99978.06;1757309;80;21042;-68
2021/12/05 10:59:32;;;;;;;36.03;24.77;;;;;;;1.04;67.91;99983.25;1755235;80;21028;-67
2021/12/05 11:02:00;;;;;;;46.77;29.03;;;;;;;1.08;68.21;99985.95;1766764;80;21120;-71
2021/12/05 11:04:43;;;;;;;41.33;27.37;;;;;;;1.01;68.27;99984.33;1764930;80;21008;-67
2021/12/05 11:07:13;;;;;;;40.20;28.77;;;;;;;0.98;68.57;99974.12;1759140;80;21082;-68
2021/12/05 11:09:48;;;;;;;44.30;30.13;;;;;;;0.99;68.81;99973.63;1752635;80;21051;-68
2021/12/05 11:12:21;;;;;;;39.03;29.70;;;;;;;0.99;68.92;99967.08;1733627;80;21017;-69
2021/12/05 11:15:01;;;;;;;42.17;28.13;;;;;;;1.03;69.27;99975.02;1733501;81;21019;-68
2021/12/05 11:17:30;;;;;;;46.10;32.07;;;;;;;1.10;69.22;99980.08;1733391;81;21634;-71
2021/12/05 11:20:11;;;;;;;44.53;30.07;;;;;;;1.21;69.37;99977.82;1697585;82;21062;-67
2021/12/05 11:22:43;;;;;;;45.13;29.60;;;;;;;1.26;69.38;99981.70;1726512;81;21012;-69
2021/12/05 11:25:17;;;;;;;46.10;29.97;;;;;;;1.30;69.86;99969.95;1738044;81;21013;-70
2021/12/05 11:27:52;;;;;;;49.07;30.30;;;;;;;1.30;69.76;99969.09;1673589;83;21069;-70
2021/12/05 11:30:31;;;;;;;43.07;29.70;;;;;;;1.36;70.05;99972.02;1665661;84;21632;-70
2021/12/05 11:33:08;;;;;;;43.30;28.37;;;;;;;1.40;70.44;99966.50;1657862;84;21002;-68
2021/12/05 11:35:48;;;;;;;42.73;28.50;;;;;;;1.41;70.44;99969.45;1657123;84;21002;-69
2021/12/05 11:38:22;;;;;;;45.87;30.07;;;;;;;1.34;70.71;99962.13;1695817;83;21000;-68
2021/12/05 11:41:06;;;;;;;42.93;29.37;;;;;;;1.33;70.95;99961.77;1689493;83;21015;-70
2021/12/05 11:43:40;;;;;;;41.13;27.63;;;;;;;1.30;71.28;99962.06;1668866;84;21161;-67
2021/12/05 11:46:12;;;;;;;39.83;26.53;;;;;;;1.21;71.59;99957.64;1687949;83;21056;-68
2021/12/05 11:48:49;;;;;;;38.93;26.83;;;;;;;1.17;71.71;99954.95;1668098;84;21145;-69
2021/12/05 11:51:44;;;;;;;43.10;26.50;;;;;;;1.08;72.03;99960.52;1638257;85;21136;-68
2021/12/05 11:54:28;;;;;;;37.97;26.80;;;;;;;1.01;72.22;99957.27;1694523;83;21137;-69
2021/12/05 11:57:03;;;;;;;37.70;26.50;;;;;;;1.00;72.38;99960.84;1688832;83;21055;-68
2021/12/05 11:59:35;;;;;;;38.23;27.23;;;;;;;1.04;72.47;99968.81;1670228;84;21004;-67
2021/12/05 12:02:22;;;;;;;42.93;27.93;;;;;;;1.08;72.28;99963.64;1694732;83;21009;-68
2021/12/05 12:04:54;;;;;;;41.80;27.27;;;;;;;1.04;72.26;99951.76;1669460;84;21128;-68
2021/12/05 12:07:28;;;;;;;36.13;25.00;;;;;;;0.96;72.49;99949.33;1658372;84;21555;-66
2021/12/05 12:10:15;;;;;;;39.53;26.50;;;;;;;0.83;73.15;99951.38;1694579;83;21299;-69
2021/12/05 12:12:48;;;;;;;37.40;24.93;;;;;;;0.79;73.19;99953.89;1676141;83;21133;-69
2021/12/05 12:15:16;;;;;;;36.47;24.23;;;;;;;0.76;73.34;99962.05;1694987;83;21180;-67
2021/12/05 12:17:46;;;;;;;38.00;25.87;;;;;;;0.67;73.58;99950.55;1693786;83;21071;-67
2021/12/05 12:20:18;;;;;;;37.90;23.93;;;;;;;0.64;73.66;99946.91;1676153;83;21127;-68
2021/12/05 12:22:44;;;;;;;37.20;25.37;;;;;;;0.62;73.86;99955.86;1681516;82;21053;-70
2021/12/05 12:25:15;;;;;;;38.55;25.50;;;;;;;0.62;73.74;99945.36;1661017;85;21073;-67
2021/12/05 12:27:44;;;;;;;36.87;24.87;;;;;;;0.64;73.72;99937.73;1688997;83;21081;-70
2021/12/05 12:30:15;;;;;;;41.93;26.73;;;;;;;0.67;73.95;99948.42;1689372;83;20997;-72
2021/12/05 12:32:46;;;;;;;39.73;25.73;;;;;;;0.70;73.82;99949.48;1670934;83;21044;-68
2021/12/05 12:35:17;;;;;;;43.43;27.17;;;;;;;0.62;73.78;99956.67;1628387;84;21037;-67
2021/12/05 12:38:09;;;;;;;38.90;24.80;;;;;;;0.62;73.70;99955.86;1645934;85;21083;-68
2021/12/05 12:40:44;;;;;;;33.27;22.17;;;;;;;0.58;73.84;99960.53;1670681;84;21068;-71
2021/12/05 12:43:48;;;;;;;38.63;25.20;;;;;;;0.54;74.37;99967.84;1667434;84;21017;-67
2021/12/05 12:46:36;;;;;;;34.80;23.57;;;;;;;0.54;74.55;99964.39;1699991;83;21035;-72
2021/12/05 12:49:20;;;;;;;36.33;23.30;;;;;;;0.50;74.78;99969.07;1700092;83;21067;-70
2021/12/05 12:52:09;;;;;;;35.47;23.90;;;;;;;0.33;75.79;99974.94;1702404;83;21068;-71
2021/12/05 12:54:55;;;;;;;36.83;23.43;;;;;;;0.25;76.29;99974.78;1694984;83;21118;-69
2021/12/05 12:57:27;;;;;;;33.30;23.50;;;;;;;0.21;76.31;99970.27;1725535;82;21049;-69
2021/12/05 13:00:15;;;;;;;40.50;24.13;;;;;;;0.20;76.25;99981.70;1697785;83;21077;-72
2021/12/05 13:11:18;;;;;;;33.43;22.67;;;;;;;-0.09;76.53;99992.03;1733952;81;21005;-71
2021/12/05 13:14:02;;;;;;;40.77;25.37;;;;;;;-0.13;77.22;99984.05;1665017;84;21101;-70
2021/12/05 13:16:32;;;;;;;34.77;23.00;;;;;;;-0.15;77.57;99985.97;1666235;84;21036;-69
2021/12/05 13:19:26;;;;;;;34.70;20.87;;;;;;;-0.21;78.02;99989.48;1680482;84;21017;-69
2021/12/05 13:21:56;;;;;;;35.33;21.77;;;;;;;-0.27;78.32;99975.55;1676843;84;20989;-68
2021/12/05 13:24:34;;;;;;;39.83;24.40;;;;;;;-0.26;78.46;99973.30;1672066;83;21555;-70
2021/12/05 13:27:05;;;;;;;44.67;27.43;;;;;;;-0.29;78.84;99977.48;1696395;83;21084;-72
2021/12/05 13:29:40;;;;;;;41.57;26.40;;;;;;;-0.29;78.77;99984.52;1698039;83;21064;-70
2021/12/05 13:32:11;;;;;;;43.33;24.67;;;;;;;-0.27;79.03;99987.34;1696854;83;21124;-72
2021/12/05 13:34:51;;;;;;;44.47;26.40;;;;;;;-0.29;79.04;99981.41;1672453;84;21092;-68
2021/12/05 13:37:28;;;;;;;49.33;27.70;;;;;;;-0.26;78.82;99982.47;1673623;84;21159;-72
2021/12/05 13:40:09;;;;;;;41.25;24.82;;;;;;;-0.27;78.76;99981.28;1678769;84;21129;-72
2021/12/05 13:42:42;;;;;;;45.30;25.60;;;;;;;-0.28;78.87;99976.53;1705181;83;21011;-70
2021/12/05 13:45:29;;;;;;;44.07;27.27;;;;;;;-0.30;79.08;99986.31;1708617;83;21030;-70
2021/12/05 13:48:04;;;;;;;48.48;27.87;;;;;;;-0.38;79.46;99982.16;1696186;83;21043;-72
2021/12/05 13:50:44;;;;;;;46.13;26.23;;;;;;;-0.36;79.38;99981.55;1694679;83;21066;-69
2021/12/05 13:53:15;;;;;;;47.97;27.97;;;;;;;-0.35;79.26;99987.64;1699392;83;22066;-73
2021/12/05 13:56:07;;;;;;;45.03;28.60;;;;;;;-0.36;78.73;99985.48;1692187;83;21101;-72
2021/12/05 13:58:40;;;;;;;44.73;26.70;;;;;;;-0.37;78.64;100002.17;1695523;83;21005;-71
2021/12/05 14:01:30;;;;;;;44.83;26.67;;;;;;;-0.38;78.25;99996.56;1668956;84;22270;-71
2021/12/05 14:04:23;;;;;;;48.17;29.83;;;;;;;-0.44;77.84;100001.83;1689355;83;21092;-71
2021/12/05 14:07:09;;;;;;;40.43;23.67;;;;;;;-0.45;77.58;100001.98;1689803;83;21032;-70
2021/12/05 14:09:46;;;;;;;39.80;24.87;;;;;;;-0.53;77.65;99997.34;1674760;84;21025;-71
2021/12/05 14:12:38;;;;;;;50.08;27.40;;;;;;;-0.55;77.72;100016.27;1698124;82;21044;-70
2021/12/05 14:15:03;;;;;;;49.07;30.77;;;;;;;-0.53;77.61;100019.59;1682541;83;21132;-71
2021/12/05 14:17:41;;;;;;;52.23;29.13;;;;;;;-0.96;77.41;99948.50;1685404;83;21547;-67
2021/12/05 14:20:12;;;;;;;46.87;26.13;;;;;;;-0.54;77.33;100011.89;1698529;83;21638;-69
2021/12/05 14:22:40;;;;;;;54.17;27.97;;;;;;;-0.60;77.30;100015.35;1701128;83;21025;-67
2021/12/05 14:25:12;;;;;;;55.23;33.07;;;;;;;-0.60;77.44;100023.20;1705765;83;21403;-69
2021/12/05 14:27:43;;;;;;;60.17;31.93;;;;;;;-0.64;77.49;100019.17;1706666;83;20987;-72
2021/12/05 14:30:13;;;;;;;52.63;29.93;;;;;;;-0.65;77.51;100025.84;1707775;83;20993;-70
2021/12/05 14:32:43;;;;;;;64.93;32.70;;;;;;;-0.70;77.58;100032.73;1705537;83;21112;-67
2021/12/05 14:35:21;;;;;;;66.93;33.63;;;;;;;-0.76;77.88;100031.11;1697665;82;21069;-66
2021/12/05 14:37:50;;;;;;;65.10;31.90;;;;;;;-0.83;77.93;100041.22;1680679;84;21078;-66
2021/12/05 14:40:21;;;;;;;68.13;36.70;;;;;;;-0.91;78.08;100039.70;1704088;83;21028;-65
2021/12/05 14:42:51;;;;;;;69.07;34.87;;;;;;;-0.99;78.03;100031.97;1696022;83;21138;-66
2021/12/05 14:45:22;;;;;;;64.70;34.97;;;;;;;-1.00;78.14;100030.78;1682550;83;21029;-67
2021/12/05 14:47:51;;;;;;;69.70;35.00;;;;;;;-1.02;78.19;100038.77;1681390;83;21095;-67
2021/12/05 14:50:26;;;;;;;70.77;36.27;;;;;;;-1.10;78.40;100047.69;1691323;83;20978;-66
2021/12/05 14:52:56;;;;;;;59.20;32.23;;;;;;;-1.20;78.92;100067.67;1691265;83;20992;-66
2021/12/05 14:55:27;;;;;;;65.53;35.10;;;;;;;-1.19;78.84;100046.64;1659539;85;21310;-69
2021/12/05 14:57:58;;;;;;;67.17;36.63;;;;;;;-1.22;78.96;100049.97;1651432;85;21584;-63
2021/12/05 15:00:49;;;;;;;76.83;38.13;;;;;;;-1.21;79.14;100055.54;1663668;83;20998;-71
2021/12/05 15:03:20;;;;;;;68.80;35.97;;;;;;;-1.17;78.98;100047.80;1698337;83;21034;-66
2021/12/05 15:05:54;;;;;;;63.27;36.47;;;;;;;-1.20;79.01;100057.22;1669171;84;21024;-67
2021/12/05 15:08:26;;;;;;;71.43;32.80;;;;;;;-1.13;78.80;100065.40;1718377;82;21480;-65
2021/12/05 15:10:56;;;;;;;68.93;36.43;;;;;;;-1.14;78.79;100073.73;1719952;83;20984;-67
2021/12/05 15:13:25;;;;;;;68.50;35.47;;;;;;;-1.18;78.54;100067.91;1687600;84;21047;-68
2021/12/05 15:15:51;;;;;;;71.10;35.70;;;;;;;-1.12;78.46;100070.52;1701546;83;21522;-68
2021/12/05 15:18:24;;;;;;;74.80;38.67;;;;;;;-1.14;78.41;100079.45;1705142;84;21056;-67
2021/12/05 15:20:50;;;;;;;73.83;36.87;;;;;;;-1.10;78.29;100075.15;1692882;84;21520;-67
2021/12/05 15:23:17;;;;;;;74.25;36.05;;;;;;;-1.10;78.28;100076.94;1693756;83;21055;-68
2021/12/05 15:25:44;;;;;;;65.65;34.43;;;;;;;-1.07;78.10;100078.84;1707089;84;21395;-68
2021/12/05 15:28:13;;;;;;;66.37;34.97;;;;;;;-1.12;77.96;100089.31;1710068;83;21004;-68
2021/12/05 15:30:45;;;;;;;72.30;35.40;;;;;;;-1.14;77.97;100078.96;1709592;83;21053;-66
2021/12/05 15:33:20;;;;;;;77.00;36.83;;;;;;;-1.15;78.16;100086.92;1710212;84;21031;-67
2021/12/05 15:35:49;;;;;;;63.17;33.47;;;;;;;-1.13;78.22;100084.56;1709025;82;21020;-66
2021/12/05 15:38:21;;;;;;;57.57;31.83;;;;;;;-1.14;78.20;100084.19;1709201;82;21040;-65
2021/12/05 15:40:52;;;;;;;71.87;34.30;;;;;;;-1.11;78.08;100086.58;1704588;82;20977;-66
2021/12/05 15:43:22;;;;;;;58.57;31.63;;;;;;;-1.10;77.97;100088.72;1703409;82;21537;-67
2021/12/05 15:45:53;;;;;;;62.00;33.77;;;;;;;-1.08;77.86;100080.27;1709518;81;21024;-69
2021/12/05 15:48:27;;;;;;;61.97;31.07;;;;;;;-1.07;77.81;100086.70;1709996;82;21076;-66
2021/12/05 15:50:54;;;;;;;58.23;33.47;;;;;;;-1.02;77.75;100087.63;1711573;82;20957;-65
2021/12/05 15:53:23;;;;;;;59.13;30.60;;;;;;;-1.07;77.65;100085.88;1726531;82;21104;-67
2021/12/05 15:55:57;;;;;;;61.33;33.37;;;;;;;-1.05;77.74;100083.48;1708541;82;21023;-67
2021/12/05 15:58:40;;;;;;;57.10;29.97;;;;;;;-1.10;77.70;100067.30;1706965;82;21024;-66
2021/12/05 16:01:15;;;;;;;55.33;30.50;;;;;;;-1.17;77.72;100063.50;1706980;81;21115;-64
2021/12/05 16:03:46;;;;;;;56.83;32.03;;;;;;;-1.29;77.82;100074.92;1703251;82;21148;-68
2021/12/05 16:06:15;;;;;;;53.73;31.80;;;;;;;-1.37;77.81;100073.73;1711183;82;20992;-66
2021/12/05 16:08:49;;;;;;;58.47;32.47;;;;;;;-1.43;78.55;100075.97;1706020;82;21094;-66
2021/12/05 16:11:20;;;;;;;56.80;30.37;;;;;;;-1.50;79.09;100070.39;1711451;81;20957;-69
2021/12/05 16:13:51;;;;;;;57.93;31.73;;;;;;;-1.58;78.85;100064.92;1708833;82;21096;-65
2021/12/05 16:16:27;;;;;;;58.50;31.47;;;;;;;-1.64;79.25;100064.06;1710396;82;20984;-66
2021/12/05 16:19:00;;;;;;;53.92;32.55;;;;;;;-1.72;79.33;100062.03;1706820;82;21070;-66
2021/12/05 16:21:30;;;;;;;60.40;35.13;;;;;;;-1.74;79.53;100055.27;1711217;82;20988;-66
2021/12/05 16:24:08;;;;;;;63.33;37.10;;;;;;;-1.71;79.76;100055.02;1709415;82;21111;-69
2021/12/05 16:26:38;;;;;;;58.80;34.30;;;;;;;-1.69;79.72;100064.42;1701499;84;21052;-65
2021/12/05 16:29:14;;;;;;;57.70;35.13;;;;;;;-1.66;79.58;100062.05;1710576;82;21027;-66
2021/12/05 16:31:53;;;;;;;57.33;30.57;;;;;;;-1.63;79.38;100070.48;1709680;82;21011;-66
2021/12/05 16:34:24;;;;;;;59.10;33.00;;;;;;;-1.59;79.37;100073.22;1709188;82;21056;-66
2021/12/05 16:37:07;;;;;;;50.40;30.60;;;;;;;-1.62;79.40;100066.94;1710170;82;21076;-65
2021/12/05 16:39:42;;;;;;;54.37;32.13;;;;;;;-1.68;79.39;100070.00;1705610;82;21063;-67
2021/12/05 16:42:14;;;;;;;52.27;30.17;;;;;;;-1.71;79.55;100060.24;1707881;82;21575;-65
2021/12/05 16:44:42;;;;;;;48.60;28.23;;;;;;;-1.68;79.70;100065.25;1688002;82;21016;-67
2021/12/05 16:47:17;;;;;;;52.40;30.63;;;;;;;-1.66;79.66;100065.97;1672067;84;21591;-65
2021/12/05 16:49:47;;;;;;;50.03;28.93;;;;;;;-1.65;79.50;100059.80;1698730;83;21037;-67
2021/12/05 16:52:24;;;;;;;49.30;27.67;;;;;;;-1.65;79.16;100057.19;1699163;83;21039;-71
2021/12/05 16:55:00;;;;;;;50.70;26.70;;;;;;;-1.76;79.44;100058.81;1703709;83;21042;-66